Time;durP1;ratioP1;P1;durP2;ratioP2;P2;SDS_P1;SDS_P2;PMS_P1;PMS_P2;Temp;Humidity;BMP_temperature;BMP_pressure;BME280_temperature;BME280_humidity;BME280_pressure;Samples;Min_cycle;Max_cycle;Signal;HPM_P1;HPM_P2
2023/10/22 00:01:54;;;;;;;0.63;0.63;;;;;;;10.15;100.00;97800.13;7406865;19;20463;-55
2023/10/22 00:04:25;;;;;;;0.98;0.93;;;;;;;10.11;100.00;97808.03;7406182;19;20043;-55
2023/10/22 00:06:55;;;;;;;1.52;1.42;;;;;;;10.07;100.00;97810.28;7404107;19;20018;-55
2023/10/22 00:09:23;;;;;;;1.33;1.27;;;;;;;10.46;100.00;97816.19;7398508;19;20019;-55
2023/10/22 00:12:11;;;;;;;0.35;0.35;;;;;;;11.16;100.00;97819.81;7398405;19;20018;-55
2023/10/22 00:14:41;;;;;;;0.15;0.15;;;;;;;10.11;100.00;97835.06;7397651;19;20018;-55
2023/10/22 00:17:29;;;;;;;0.30;0.30;;;;;;;10.49;100.00;97831.09;7400331;19;20015;-55
2023/10/22 00:20:07;;;;;;;2.78;1.30;;;;;;;10.11;100.00;97827.50;7397509;19;20070;-55
2023/10/22 00:22:58;;;;;;;0.70;0.70;;;;;;;9.98;100.00;97837.69;7398213;19;20010;-55
2023/10/22 00:25:41;;;;;;;0.45;0.45;;;;;;;9.98;100.00;97846.03;7400555;19;20018;-55
2023/10/22 00:28:15;;;;;;;0.40;0.40;;;;;;;9.89;100.00;97842.34;7398466;19;20018;-55
2023/10/22 00:30:48;;;;;;;0.30;0.30;;;;;;;9.79;100.00;97838.38;7397948;19;20034;-55
2023/10/22 00:33:38;;;;;;;0.20;0.20;;;;;;;10.87;100.00;97846.56;7397364;19;20007;-55
2023/10/22 00:36:47;;;;;;;0.68;0.68;;;;;;;9.89;100.00;97847.13;7397286;19;20015;-55
2023/10/22 00:39:29;;;;;;;;;;;;;;;9.70;100.00;97858.16;7397743;19;20015;-57
2023/10/22 00:42:25;;;;;;;0.15;0.15;;;;;;;10.61;100.00;97861.06;7399202;19;19919;-55
2023/10/22 00:45:04;;;;;;;0.10;0.10;;;;;;;9.79;100.00;97859.84;7399604;19;20010;-55
2023/10/22 00:47:47;;;;;;;0.20;0.20;;;;;;;9.53;100.00;97865.13;7396548;19;20018;-55
2023/10/22 00:50:39;;;;;;;0.20;0.20;;;;;;;9.60;100.00;97864.56;7396259;19;20502;-55
2023/10/22 00:53:20;;;;;;;0.20;0.20;;;;;;;9.65;100.00;97867.31;7396375;19;20015;-55
2023/10/22 00:56:06;;;;;;;0.95;0.63;;;;;;;9.79;100.00;97879.31;7396167;19;20074;-55
2023/10/22 00:58:43;;;;;;;0.10;0.10;;;;;;;9.49;100.00;97892.41;7396299;19;20365;-55
2023/10/22 01:01:56;;;;;;;2.55;0.68;;;;;;;9.60;100.00;97892.34;7400799;19;20042;-55
2023/10/22 01:04:52;;;;;;;0.90;0.50;;;;;;;10.21;100.00;97900.19;7395899;19;20052;-55
2023/10/22 01:07:42;;;;;;;0.30;0.30;;;;;;;9.85;100.00;97902.28;7396165;19;20018;-55
2023/10/22 01:10:41;;;;;;;0.22;0.22;;;;;;;9.94;100.00;97899.13;7396677;19;20014;-55
2023/10/22 01:13:40;;;;;;;0.20;0.20;;;;;;;10.37;100.00;97900.03;7399585;19;20019;-55
2023/10/22 01:16:38;;;;;;;0.20;0.20;;;;;;;10.19;100.00;97906.28;7394277;19;20518;-55
2023/10/22 01:22:51;;;;;;;7.93;0.75;;;;;;;10.48;100.00;97919.38;7396221;19;20482;-55
2023/10/22 01:25:27;;;;;;;0.68;0.63;;;;;;;10.40;100.00;97917.72;7398450;19;20018;-55
2023/10/22 01:28:05;;;;;;;0.10;0.10;;;;;;;10.53;100.00;97924.16;7395698;19;20010;-55
2023/10/22 01:30:50;;;;;;;0.20;0.20;;;;;;;10.58;100.00;97928.91;7396804;19;20036;-55
2023/10/22 01:33:39;;;;;;;;;;;;;;;10.66;100.00;97927.06;7398540;19;20014;-55
2023/10/22 01:36:29;;;;;;;0.15;0.15;;;;;;;10.68;100.00;97939.72;7394069;19;19911;-55
2023/10/22 01:39:02;;;;;;;0.43;0.43;;;;;;;10.58;100.00;97931.69;7397114;19;20010;-56
2023/10/22 01:41:58;;;;;;;0.20;0.20;;;;;;;10.63;100.00;97944.78;7395368;19;20034;-55
2023/10/22 01:44:53;;;;;;;0.20;0.20;;;;;;;10.86;100.00;97942.53;7394491;19;20018;-55
2023/10/22 01:47:53;;;;;;;0.30;0.30;;;;;;;11.17;100.00;97955.06;7394809;19;20038;-55
2023/10/22 01:51:09;;;;;;;0.10;0.10;;;;;;;11.00;100.00;97960.09;7393183;19;20065;-55
2023/10/22 01:53:44;;;;;;;0.10;0.10;;;;;;;11.13;100.00;97962.97;7392546;19;20043;-55
2023/10/22 01:56:14;;;;;;;0.10;0.10;;;;;;;11.29;100.00;97965.53;7391822;19;20023;-55
2023/10/22 01:58:47;;;;;;;0.10;0.10;;;;;;;11.35;100.00;97968.25;7394732;19;20019;-55
2023/10/22 02:01:25;;;;;;;0.80;0.47;;;;;;;11.25;100.00;97973.44;7394051;19;20459;-55
2023/10/22 02:03:57;;;;;;;0.20;0.20;;;;;;;11.31;100.00;97965.00;7396165;19;20010;-55
2023/10/22 02:06:35;;;;;;;0.20;0.20;;;;;;;13.49;100.00;97973.47;7393005;19;20010;-55
2023/10/22 02:09:16;;;;;;;0.20;0.20;;;;;;;12.39;100.00;97978.41;7393960;19;20014;-55
2023/10/22 02:11:53;;;;;;;0.55;0.55;;;;;;;11.37;100.00;97976.84;7395476;19;20021;-55
2023/10/22 02:14:27;;;;;;;0.20;0.20;;;;;;;11.35;100.00;97974.56;7394829;19;20359;-55
2023/10/22 02:16:59;;;;;;;0.10;0.10;;;;;;;11.33;100.00;97982.72;7395784;19;20010;-55
2023/10/22 02:19:31;;;;;;;0.10;0.10;;;;;;;11.36;100.00;97978.13;7393555;19;20459;-55
2023/10/22 02:22:12;;;;;;;0.10;0.10;;;;;;;11.46;100.00;97981.31;7393628;19;20027;-55
2023/10/22 02:24:57;;;;;;;0.20;0.20;;;;;;;11.46;100.00;97984.81;7395240;19;20036;-55
2023/10/22 02:27:35;;;;;;;0.30;0.30;;;;;;;11.45;100.00;97983.34;7393675;19;20011;-55
2023/10/22 02:30:07;;;;;;;0.20;0.20;;;;;;;11.48;100.00;97990.63;7392896;19;20015;-55
2023/10/22 02:32:38;;;;;;;0.37;0.37;;;;;;;11.51;100.00;97989.59;7395075;19;20010;-56
2023/10/22 02:35:14;;;;;;;0.20;0.20;;;;;;;11.55;100.00;97984.47;7393834;19;20014;-55
2023/10/22 02:37:47;;;;;;;4.65;0.68;;;;;;;11.56;100.00;97991.56;7393912;19;20592;-55
2023/10/22 02:40:29;;;;;;;0.30;0.30;;;;;;;11.51;100.00;97994.41;7395720;19;20102;-55
2023/10/22 02:43:01;;;;;;;0.25;0.25;;;;;;;11.45;100.00;98000.06;7395068;19;20462;-55
2023/10/22 02:45:37;;;;;;;0.10;0.10;;;;;;;11.50;100.00;98002.00;7396682;19;20048;-55
2023/10/22 02:48:10;;;;;;;0.22;0.20;;;;;;;11.51;100.00;98009.09;7393891;19;20123;-55
2023/10/22 02:50:44;;;;;;;0.17;0.17;;;;;;;11.97;100.00;98008.75;7392751;19;20085;-55
2023/10/22 02:53:28;;;;;;;0.40;0.40;;;;;;;11.64;100.00;98014.75;7396931;19;20332;-55
2023/10/22 02:56:51;;;;;;;0.10;0.10;;;;;;;11.44;100.00;98018.81;7392487;19;20015;-55
2023/10/22 02:59:54;;;;;;;0.10;0.10;;;;;;;11.45;100.00;98014.00;7394742;19;20015;-55
2023/10/22 03:03:07;;;;;;;0.20;0.20;;;;;;;11.60;100.00;98022.66;7391406;19;20467;-55
2023/10/22 03:05:51;;;;;;;0.10;0.10;;;;;;;11.59;100.00;98029.50;7391291;19;20087;-55
2023/10/22 03:08:34;;;;;;;0.75;0.73;;;;;;;11.59;100.00;98031.53;7390353;19;20111;-55
2023/10/22 03:11:22;;;;;;;0.20;0.20;;;;;;;11.59;100.00;98034.31;7391043;19;20015;-55
2023/10/22 03:13:55;;;;;;;0.30;0.30;;;;;;;11.63;100.00;98040.38;7393758;19;20027;-55
2023/10/22 03:17:03;;;;;;;0.10;0.10;;;;;;;11.71;100.00;98042.06;7389918;19;20006;-55
2023/10/22 03:19:38;;;;;;;0.10;0.10;;;;;;;12.14;100.00;98056.69;7392371;19;20350;-55
2023/10/22 03:22:41;;;;;;;0.35;0.25;;;;;;;11.53;100.00;98059.50;7392390;19;20470;-55
2023/10/22 03:25:23;;;;;;;0.10;0.10;;;;;;;12.60;100.00;98063.06;7397163;19;20118;-55
2023/10/22 03:28:01;;;;;;;0.20;0.20;;;;;;;12.13;100.00;98066.31;7391502;19;20078;-55
2023/10/22 03:30:34;;;;;;;0.10;0.10;;;;;;;12.06;100.00;98069.72;7393066;19;20015;-55
2023/10/22 03:33:19;;;;;;;0.15;0.15;;;;;;;12.02;100.00;98074.84;7392096;19;20361;-56
2023/10/22 03:35:53;;;;;;;0.20;0.20;;;;;;;12.11;100.00;98082.84;7390683;19;20722;-55
2023/10/22 03:38:51;;;;;;;0.25;0.25;;;;;;;12.55;100.00;98084.22;7392595;19;20014;-55
2023/10/22 03:41:34;;;;;;;0.20;0.20;;;;;;;12.32;100.00;98090.66;7391694;19;20031;-56
2023/10/22 03:44:17;;;;;;;0.15;0.15;;;;;;;12.09;100.00;98099.34;7403688;19;20013;-55
2023/10/22 03:47:02;;;;;;;0.10;0.10;;;;;;;12.01;100.00;98104.03;7398867;19;20014;-55
2023/10/22 03:49:45;;;;;;;0.10;0.10;;;;;;;11.84;100.00;98103.50;7398782;19;20014;-55
2023/10/22 03:52:50;;;;;;;0.50;0.50;;;;;;;11.74;100.00;98107.94;7399202;19;20014;-55
2023/10/22 03:56:03;;;;;;;0.20;0.20;;;;;;;11.86;100.00;98109.31;7397195;19;20026;-55
2023/10/22 03:58:37;;;;;;;0.22;0.20;;;;;;;11.73;100.00;98117.59;7397065;19;20038;-56
2023/10/22 04:05:30;;;;;;;0.20;0.20;;;;;;;11.51;100.00;98128.97;7401018;19;20379;-55
2023/10/22 04:11:54;;;;;;;0.20;0.20;;;;;;;10.77;100.00;98156.50;7395912;19;20018;-55
2023/10/22 04:14:40;;;;;;;0.30;0.22;;;;;;;10.91;100.00;98155.38;7399520;19;20013;-55
2023/10/22 04:17:45;;;;;;;0.30;0.30;;;;;;;10.98;100.00;98152.03;7397780;19;20018;-56
2023/10/22 04:20:27;;;;;;;0.20;0.20;;;;;;;11.24;100.00;98149.53;7395161;19;20472;-55
2023/10/22 04:23:20;;;;;;;0.10;0.10;;;;;;;11.36;100.00;98150.91;7397533;19;20014;-55
2023/10/22 04:26:04;;;;;;;0.25;0.25;;;;;;;11.20;100.00;98147.00;7400434;19;20010;-56
2023/10/22 04:28:35;;;;;;;0.20;0.20;;;;;;;25.01;67.93;98127.00;7396606;19;20010;-55
2023/10/22 04:31:32;;;;;;;0.20;0.20;;;;;;;32.32;37.67;98118.81;7395885;19;20010;-55
2023/10/22 04:34:18;;;;;;;0.15;0.15;;;;;;;34.46;32.02;98126.63;7399778;19;20021;-56
2023/10/22 04:37:23;;;;;;;0.30;0.30;;;;;;;35.76;29.84;98125.25;7394797;19;20021;-56
2023/10/22 04:40:37;;;;;;;0.38;0.20;;;;;;;36.77;28.09;98127.81;7397600;19;20073;-56
2023/10/22 04:43:25;;;;;;;0.35;0.35;;;;;;;37.39;26.23;98130.94;7396991;19;20011;-56
2023/10/22 04:46:10;;;;;;;0.20;0.20;;;;;;;37.65;25.94;98133.44;7396795;19;20032;-56
2023/10/22 04:49:08;;;;;;;0.20;0.20;;;;;;;36.78;26.17;98140.16;7395744;19;20027;-56
2023/10/22 04:52:35;;;;;;;0.30;0.30;;;;;;;36.66;25.90;98137.81;7394825;19;20504;-56
2023/10/22 04:55:31;;;;;;;0.30;0.30;;;;;;;36.18;25.92;98139.84;7393393;19;20015;-56
2023/10/22 04:58:28;;;;;;;0.28;0.28;;;;;;;33.69;27.25;98152.72;7397121;19;20070;-56
2023/10/22 05:01:01;;;;;;;0.20;0.20;;;;;;;33.19;27.40;98154.09;7398768;19;20014;-56
2023/10/22 05:03:44;;;;;;;0.15;0.15;;;;;;;33.35;27.56;98160.38;7396530;19;20033;-56
2023/10/22 05:06:27;;;;;;;0.20;0.20;;;;;;;33.27;26.92;98165.88;7396785;19;20015;-56
2023/10/22 05:09:31;;;;;;;0.50;0.50;;;;;;;31.69;28.01;98167.69;7395798;19;20007;-56
2023/10/22 05:12:39;;;;;;;0.20;0.20;;;;;;;31.63;27.82;98178.97;7395907;19;20017;-56
2023/10/22 05:15:51;;;;;;;0.30;0.30;;;;;;;31.74;27.96;98178.69;7395396;19;20015;-55
2023/10/22 05:18:17;;;;;;;0.20;0.20;;;;;;;31.80;27.85;98192.56;7395373;19;20030;-56
2023/10/22 05:20:44;;;;;;;0.22;0.22;;;;;;;30.37;29.09;98195.47;7395918;19;20018;-56
2023/10/22 05:23:10;;;;;;;0.20;0.20;;;;;;;30.02;28.85;98193.22;7395828;19;20007;-56
2023/10/22 05:25:37;;;;;;;0.22;0.22;;;;;;;30.52;28.72;98200.44;7396616;19;20010;-56
2023/10/22 05:28:03;;;;;;;0.20;0.20;;;;;;;29.55;29.35;98207.63;7395554;19;20015;-56
2023/10/22 05:30:33;;;;;;;0.20;0.20;;;;;;;29.31;29.38;98217.22;7399730;19;20015;-56
2023/10/22 05:33:09;;;;;;;0.20;0.20;;;;;;;28.39;30.46;98203.41;7399590;19;20021;-56
2023/10/22 05:35:40;;;;;;;0.30;0.30;;;;;;;27.53;31.23;98207.44;7399516;19;20706;-56
2023/10/22 05:38:07;;;;;;;0.15;0.15;;;;;;;27.17;31.41;98222.56;7401233;19;20018;-56
2023/10/22 05:40:39;;;;;;;0.22;0.22;;;;;;;27.45;31.03;98224.91;7396907;19;20077;-56
2023/10/22 05:43:10;;;;;;;0.20;0.20;;;;;;;27.42;31.20;98234.00;7398406;19;20027;-56
2023/10/22 05:46:12;;;;;;;0.30;0.30;;;;;;;27.40;30.81;98233.88;7396138;19;20011;-56
2023/10/22 05:56:28;;;;;;;1.00;0.63;;;;;;;25.44;32.94;98259.41;7393686;19;20018;-54
2023/10/22 05:59:18;;;;;;;0.30;0.30;;;;;;;24.57;33.82;98261.53;7394131;19;20030;-54
2023/10/22 06:01:44;;;;;;;0.43;0.43;;;;;;;24.50;33.67;98267.41;7392103;19;20110;-54
2023/10/22 06:04:10;;;;;;;0.17;0.17;;;;;;;25.33;32.89;98274.34;7393456;19;20014;-54
2023/10/22 06:06:37;;;;;;;0.10;0.10;;;;;;;24.58;33.82;98274.38;7388893;19;20021;-54
2023/10/22 06:09:03;;;;;;;0.13;0.13;;;;;;;24.31;34.42;98284.63;7389838;19;20018;-54
2023/10/22 06:11:29;;;;;;;0.20;0.20;;;;;;;23.85;34.37;98285.75;7391195;19;20122;-54
2023/10/22 06:13:56;;;;;;;0.20;0.20;;;;;;;23.62;34.79;98282.72;7396943;19;20007;-54
2023/10/22 06:16:56;;;;;;;0.25;0.25;;;;;;;24.26;34.39;98294.22;7394380;19;20048;-55
2023/10/22 06:19:45;;;;;;;0.75;0.50;;;;;;;23.30;35.43;98294.59;7394572;19;20090;-55
2023/10/22 06:22:29;;;;;;;0.98;0.98;;;;;;;22.87;35.56;98304.22;7394624;19;20364;-55
2023/10/22 06:25:04;;;;;;;0.50;0.50;;;;;;;22.72;36.12;98301.66;7396339;19;20018;-55
2023/10/22 06:27:41;;;;;;;0.30;0.30;;;;;;;22.54;36.22;98295.34;7398279;19;20372;-55
2023/10/22 06:30:31;;;;;;;0.63;0.63;;;;;;;22.47;36.52;98302.66;7398761;19;20014;-55
2023/10/22 06:33:07;;;;;;;0.40;0.40;;;;;;;22.37;36.48;98299.03;7395424;19;20021;-55
2023/10/22 06:36:24;;;;;;;0.47;0.47;;;;;;;22.20;36.84;98304.84;7393626;19;20010;-55
2023/10/22 07:00:35;;;;;;;0.50;0.50;;;;;;;22.89;36.40;98352.63;7392108;19;20018;-55
2023/10/22 07:03:01;;;;;;;0.30;0.30;;;;;;;24.50;34.99;98349.97;7392283;19;20019;-55
2023/10/22 07:05:27;;;;;;;1.85;0.95;;;;;;;25.34;33.96;98357.72;7390105;19;20013;-55
2023/10/22 07:07:53;;;;;;;0.40;0.40;;;;;;;23.65;34.96;98357.50;7390499;19;20104;-55
2023/10/22 07:10:19;;;;;;;1.05;0.60;;;;;;;22.83;36.09;98363.50;7391068;19;20034;-55
2023/10/22 07:12:46;;;;;;;0.10;0.10;;;;;;;26.43;32.83;98371.09;7391044;19;20011;-55
2023/10/22 07:15:15;;;;;;;0.30;0.30;;;;;;;26.47;32.37;98371.34;7394421;19;20037;-55
2023/10/22 07:18:16;;;;;;;0.95;0.88;;;;;;;26.93;32.08;98382.72;7397219;19;20011;-55
2023/10/22 08:00:36;;;;;;;0.30;0.30;;;;;;;21.18;39.55;98472.31;7397078;19;20013;-55
2023/10/22 08:03:03;;;;;;;3.83;1.05;;;;;;;21.66;38.86;98476.28;7394639;19;20022;-55
2023/10/22 08:05:30;;;;;;;0.20;0.20;;;;;;;20.92;39.08;98473.69;7395034;19;20050;-55
2023/10/22 08:07:56;;;;;;;0.40;0.40;;;;;;;20.93;40.09;98473.09;7393797;19;20017;-55
2023/10/22 08:10:22;;;;;;;1.08;0.63;;;;;;;21.48;39.49;98480.47;7385678;19;20414;-55
2023/10/22 08:12:48;;;;;;;1.20;0.88;;;;;;;21.72;39.21;98469.00;7389626;19;20014;-55
2023/10/22 08:15:16;;;;;;;0.88;0.88;;;;;;;22.01;39.19;98477.75;7394596;19;20010;-55
2023/10/22 08:18:11;;;;;;;0.50;0.50;;;;;;;21.89;39.04;98485.28;7398137;19;20034;-55
2023/10/22 08:20:48;;;;;;;0.98;0.98;;;;;;;22.29;39.17;98474.31;7399530;19;20021;-54
2023/10/22 08:23:37;;;;;;;0.30;0.30;;;;;;;22.94;38.22;98482.16;7397323;19;20018;-56
2023/10/22 08:29:00;;;;;;;0.17;0.17;;;;;;;23.47;38.25;98479.16;7396857;19;20017;-55
2023/10/22 08:32:22;;;;;;;0.57;0.57;;;;;;;23.04;38.66;98489.38;7398098;19;20021;-55
2023/10/22 08:40:18;;;;;;;0.63;0.57;;;;;;;22.60;39.75;98503.75;7398214;19;20021;-55
2023/10/22 08:43:21;;;;;;;0.70;0.70;;;;;;;23.01;39.49;98501.19;7397901;19;20021;-55
2023/10/22 08:45:58;;;;;;;0.60;0.60;;;;;;;22.88;39.69;98502.34;7397678;19;20015;-56
2023/10/22 08:48:34;;;;;;;1.10;0.50;;;;;;;22.83;40.19;98502.63;7398004;19;20099;-55
2023/10/22 08:51:58;;;;;;;0.68;0.68;;;;;;;22.69;40.67;98505.13;7397604;19;20015;-55
2023/10/22 08:55:37;;;;;;;0.52;0.52;;;;;;;22.77;40.96;98514.25;7397791;19;20017;-55
2023/10/22 08:59:19;;;;;;;0.50;0.50;;;;;;;24.00;39.51;98510.06;7398189;19;20428;-55
2023/10/22 09:02:26;;;;;;;0.15;0.15;;;;;;;24.30;39.01;98516.47;7396108;19;20356;-55
2023/10/22 09:04:53;;;;;;;0.60;0.60;;;;;;;23.70;40.02;98519.22;7397869;19;20011;-55
2023/10/22 09:07:52;;;;;;;0.57;0.57;;;;;;;23.87;40.29;98516.22;7401054;19;20499;-55
2023/10/22 09:10:29;;;;;;;0.25;0.22;;;;;;;25.20;38.62;98522.84;7397468;19;20029;-55
2023/10/22 09:13:12;;;;;;;1.45;1.00;;;;;;;25.48;38.32;98527.63;7399203;19;20026;-55
2023/10/22 09:15:48;;;;;;;0.22;0.22;;;;;;;26.08;38.09;98530.13;7399571;19;20011;-55
2023/10/22 09:18:15;;;;;;;0.65;0.65;;;;;;;26.44;37.50;98526.78;7397403;19;20011;-55
2023/10/22 09:20:44;;;;;;;0.50;0.40;;;;;;;26.38;37.63;98528.50;7397645;19;20366;-55
2023/10/22 09:23:13;;;;;;;0.22;0.22;;;;;;;26.50;37.29;98529.25;7397670;19;20017;-55
2023/10/22 09:25:43;;;;;;;0.20;0.20;;;;;;;26.89;37.47;98536.03;7400140;19;20364;-55
2023/10/22 09:28:20;;;;;;;0.45;0.45;;;;;;;27.36;36.97;98531.78;7396061;19;20361;-55
2023/10/22 09:31:03;;;;;;;0.68;0.68;;;;;;;26.94;37.31;98543.50;7397420;19;20039;-55
2023/10/22 09:33:43;;;;;;;0.40;0.30;;;;;;;26.94;37.65;98549.94;7395919;19;20782;-56
2023/10/22 09:36:40;;;;;;;1.20;0.50;;;;;;;27.16;37.54;98552.69;7398220;19;20011;-56
2023/10/22 09:39:39;;;;;;;4.40;0.85;;;;;;;26.74;37.88;98548.72;7394187;19;20034;-55
2023/10/22 09:42:41;;;;;;;0.63;0.43;;;;;;;28.07;36.49;98550.28;7394368;19;20015;-56
2023/10/22 09:45:14;;;;;;;0.20;0.20;;;;;;;28.60;35.98;98548.25;7397871;19;20015;-55
2023/10/22 09:48:06;;;;;;;0.73;0.65;;;;;;;27.62;36.99;98558.34;7396003;19;20018;-56
2023/10/22 09:54:25;;;;;;;4.47;1.23;;;;;;;25.06;41.06;98564.59;7396727;19;20580;-56
2023/10/22 10:00:22;;;;;;;0.20;0.20;;;;;;;25.62;41.69;98569.88;7394100;19;20021;-56
2023/10/22 10:02:49;;;;;;;0.10;0.10;;;;;;;26.71;41.19;98567.03;7395122;19;20014;-56
2023/10/22 10:05:18;;;;;;;0.10;0.10;;;;;;;25.95;41.60;98570.63;7396847;19;20014;-56
2023/10/22 10:07:44;;;;;;;0.10;0.10;;;;;;;26.14;41.70;98579.06;7394325;19;20458;-56
2023/10/22 10:10:11;;;;;;;0.10;0.10;;;;;;;27.76;40.72;98574.22;7392914;19;20470;-56
2023/10/22 10:12:40;;;;;;;0.17;0.17;;;;;;;27.83;40.30;98578.19;7393321;19;20015;-56
2023/10/22 10:15:06;;;;;;;0.10;0.10;;;;;;;28.41;39.64;98584.44;7395342;19;20014;-55
2023/10/22 10:17:55;;;;;;;1.05;0.30;;;;;;;27.57;40.36;98585.22;7395359;19;20011;-55
2023/10/22 10:20:42;;;;;;;0.25;0.25;;;;;;;26.48;42.00;98594.81;7393629;19;20006;-56
2023/10/22 10:23:26;;;;;;;3.05;0.57;;;;;;;26.17;42.51;98594.97;7391591;19;20039;-56
2023/10/22 10:26:42;;;;;;;0.10;0.10;;;;;;;25.66;43.31;98598.66;7394653;19;20011;-56
2023/10/22 10:29:43;;;;;;;0.10;0.10;;;;;;;26.18;43.35;98590.75;7391037;19;20014;-56
2023/10/22 10:32:27;;;;;;;0.30;0.30;;;;;;;26.58;42.78;98596.19;7392120;19;20078;-56
2023/10/22 11:00:45;;;;;;;0.10;0.10;;;;;;;27.97;40.83;98621.97;7394046;19;20019;-56
2023/10/22 11:06:31;;;;;;;0.20;0.20;;;;;;;27.61;41.55;98629.09;7391461;19;20040;-56
2023/10/22 11:12:50;;;;;;;0.43;0.32;;;;;;;27.47;41.87;98627.50;7393692;19;20018;-55
2023/10/22 11:15:50;;;;;;;0.63;0.43;;;;;;;29.11;40.25;98627.75;7394372;19;20352;-56
2023/10/22 11:18:16;;;;;;;0.22;0.22;;;;;;;29.60;39.75;98633.25;7390947;19;20010;-55
2023/10/22 11:20:42;;;;;;;0.63;0.52;;;;;;;30.02;39.48;98637.59;7388223;19;20070;-55
2023/10/22 11:23:18;;;;;;;0.10;0.10;;;;;;;30.14;39.25;98626.69;7390546;19;20650;-56
2023/10/22 11:25:45;;;;;;;0.28;0.20;;;;;;;30.42;38.46;98633.88;7393581;19;20014;-56
2023/10/22 11:28:12;;;;;;;0.30;0.30;;;;;;;30.39;38.37;98635.16;7390436;19;20012;-56
2023/10/22 11:30:40;;;;;;;0.43;0.28;;;;;;;30.46;38.18;98634.06;7390524;19;20011;-56
2023/10/22 11:33:34;;;;;;;0.30;0.20;;;;;;;30.57;38.00;98638.94;7392192;19;20018;-56
2023/10/22 11:36:31;;;;;;;1.42;0.28;;;;;;;30.44;38.52;98637.59;7389898;19;20019;-56
2023/10/22 11:39:55;;;;;;;0.10;0.10;;;;;;;29.67;39.29;98638.63;7392742;19;20017;-56
2023/10/22 11:42:43;;;;;;;0.20;0.20;;;;;;;29.72;38.99;98637.47;7392371;19;20011;-55
2023/10/22 11:45:36;;;;;;;0.10;0.10;;;;;;;29.66;39.31;98648.66;7393567;19;20138;-56
2023/10/22 11:49:01;;;;;;;0.32;0.15;;;;;;;29.51;38.65;98654.28;7392015;19;20017;-56
2023/10/22 11:51:53;;;;;;;3.95;0.63;;;;;;;29.08;39.46;98648.34;7392262;19;20913;-55
2023/10/22 11:54:57;;;;;;;0.30;0.20;;;;;;;29.04;39.71;98660.34;7394691;19;20037;-55
2023/10/22 11:57:37;;;;;;;0.57;0.57;;;;;;;28.84;39.82;98647.78;7391792;19;20011;-56
2023/10/22 12:01:06;;;;;;;2.55;1.42;;;;;;;28.65;39.69;98658.84;7392355;19;20013;-56
2023/10/22 12:03:47;;;;;;;0.20;0.20;;;;;;;29.92;38.44;98652.16;7394836;19;20011;-56
2023/10/22 12:07:00;;;;;;;0.17;0.17;;;;;;;28.52;39.98;98660.97;7397799;19;20043;-56
2023/10/22 12:13:38;;;;;;;0.22;0.22;;;;;;;28.52;40.18;98672.44;7399069;19;20022;-56
2023/10/22 12:16:11;;;;;;;0.50;0.25;;;;;;;28.57;40.62;98687.00;7395483;19;20019;-56
2023/10/22 12:18:45;;;;;;;0.30;0.30;;;;;;;28.69;40.25;98687.72;7397798;19;20415;-56
2023/10/22 12:21:12;;;;;;;3.92;0.73;;;;;;;29.15;40.07;98685.31;7395716;19;20021;-56
2023/10/22 12:23:39;;;;;;;2.65;0.47;;;;;;;28.88;39.88;98682.38;7395832;19;20043;-56
2023/10/22 12:26:12;;;;;;;0.10;0.00;;;;;;;29.52;39.17;98690.94;7397155;19;20013;-51
2023/10/22 12:35:48;;;;;;;0.10;0.10;;;;;;;29.74;38.92;98688.53;7393258;19;20343;-51
2023/10/22 12:38:20;;;;;;;0.20;0.20;;;;;;;29.96;39.11;98681.81;7394911;19;20021;-50
2023/10/22 12:40:53;;;;;;;0.57;0.30;;;;;;;31.18;37.24;98682.84;7393396;19;20014;-50
2023/10/22 12:46:42;;;;;;;0.10;0.10;;;;;;;30.10;37.78;98696.19;7396617;19;20017;-51
2023/10/22 12:49:08;;;;;;;0.60;0.22;;;;;;;30.73;37.17;98700.09;7394983;19;20040;-50
2023/10/22 12:51:34;;;;;;;0.75;0.22;;;;;;;30.36;37.84;98705.41;7392839;19;20032;-51
2023/10/22 12:54:00;;;;;;;1.42;0.25;;;;;;;30.56;37.40;98700.66;7395988;19;20126;-51
2023/10/22 12:56:27;;;;;;;0.20;0.20;;;;;;;31.45;36.29;98708.59;7390522;19;20025;-52
2023/10/22 12:58:55;;;;;;;0.10;0.00;;;;;;;32.90;35.07;98707.03;7392516;19;20007;-51
2023/10/22 13:01:22;;;;;;;0.28;0.28;;;;;;;33.40;34.18;98710.44;7394665;19;20014;-52
2023/10/22 13:03:48;;;;;;;0.10;0.10;;;;;;;33.78;33.69;98711.91;7395380;19;20463;-56
2023/10/22 13:06:14;;;;;;;0.10;0.10;;;;;;;33.77;33.61;98707.53;7395712;19;20011;-55
2023/10/22 13:08:41;;;;;;;0.10;0.10;;;;;;;33.84;33.35;98717.91;7395481;19;20007;-56
2023/10/22 13:11:07;;;;;;;0.20;0.20;;;;;;;33.99;33.31;98714.13;7393900;19;20474;-56
2023/10/22 13:13:33;;;;;;;0.10;0.10;;;;;;;34.24;33.05;98715.75;7395017;19;20014;-55
2023/10/22 13:15:59;;;;;;;0.20;0.20;;;;;;;34.40;33.00;98718.44;7393936;19;20015;-55
2023/10/22 13:21:43;;;;;;;0.10;0.10;;;;;;;35.40;32.97;98716.00;7404800;19;20007;-88
2023/10/22 13:24:09;;;;;;;0.10;0.10;;;;;;;35.85;32.07;98723.13;7409293;19;20356;-85
2023/10/22 13:26:35;;;;;;;0.60;0.60;;;;;;;36.10;31.84;98707.91;7404946;19;20014;-91
2023/10/22 13:29:06;;;;;;;0.77;0.20;;;;;;;36.39;31.19;98715.94;7405703;19;20026;-82
2023/10/22 13:31:33;;;;;;;0.20;0.10;;;;;;;36.58;31.06;98715.00;7409741;19;20011;-84
2023/10/22 13:33:59;;;;;;;0.10;0.10;;;;;;;36.28;31.01;98711.28;7392614;19;20480;-86
2023/10/22 13:36:26;;;;;;;0.52;0.52;;;;;;;36.66;30.68;98702.88;7390845;19;20022;-84
2023/10/22 13:38:52;;;;;;;0.10;0.10;;;;;;;36.62;30.69;98717.28;7390964;19;20020;-85
2023/10/22 13:41:18;;;;;;;0.10;0.10;;;;;;;37.30;30.14;98715.28;7389628;19;20371;-84
2023/10/22 13:43:44;;;;;;;0.80;0.28;;;;;;;37.85;29.29;98715.09;7391219;19;20013;-87
2023/10/22 13:46:10;;;;;;;0.30;0.00;;;;;;;37.77;29.80;98712.00;7391365;19;20010;-87
2023/10/22 13:48:36;;;;;;;0.30;0.20;;;;;;;38.30;29.11;98717.47;7393299;19;20018;-81
2023/10/22 13:51:06;;;;;;;1.13;0.45;;;;;;;37.72;29.35;98714.09;7397817;19;20074;-85
2023/10/22 13:53:32;;;;;;;2.92;0.22;;;;;;;37.06;29.71;98709.69;7391780;19;20014;-88
2023/10/22 13:55:59;;;;;;;0.20;0.20;;;;;;;37.88;29.39;98722.44;7393346;19;20014;-88
2023/10/22 13:58:28;;;;;;;2.60;0.15;;;;;;;38.52;28.99;98720.78;7392935;19;20007;-95
2023/10/22 14:00:54;;;;;;;0.35;0.35;;;;;;;38.58;28.49;98717.22;7394058;19;20461;-89
2023/10/22 14:03:20;;;;;;;0.68;0.32;;;;;;;38.77;28.30;98718.31;7389114;19;20045;-89
2023/10/22 14:05:51;;;;;;;0.10;0.08;;;;;;;39.12;27.96;98723.22;7374932;19;20012;-96
2023/10/22 14:08:17;;;;;;;0.15;0.15;;;;;;;38.77;27.88;98730.66;7388044;19;20037;-90
2023/10/22 14:10:44;;;;;;;0.10;0.03;;;;;;;38.88;28.00;98732.31;7386268;19;20014;-90
2023/10/22 14:13:12;;;;;;;0.20;0.20;;;;;;;39.38;27.42;98729.47;7390416;19;20014;-86
2023/10/22 14:15:39;;;;;;;0.88;0.15;;;;;;;39.70;26.99;98735.03;7393216;19;20017;-89
2023/10/22 14:18:06;;;;;;;0.30;0.30;;;;;;;39.66;26.72;98732.78;7390565;19;20011;-92
2023/10/22 14:20:32;;;;;;;0.10;0.10;;;;;;;39.62;26.56;98738.56;7393951;19;20025;-81
2023/10/22 14:22:58;;;;;;;0.10;0.00;;;;;;;39.46;26.74;98743.41;7374082;19;20003;-90
2023/10/22 14:25:25;;;;;;;0.08;0.08;;;;;;;39.79;26.16;98737.31;7394909;19;20011;-94
2023/10/22 14:27:55;;;;;;;0.32;0.32;;;;;;;39.61;26.34;98734.19;7374101;19;20018;-93
2023/10/22 14:30:21;;;;;;;0.10;0.10;;;;;;;39.68;26.03;98744.47;7392665;19;20010;-87
2023/10/22 14:32:48;;;;;;;0.10;0.08;;;;;;;39.58;26.05;98747.25;7374301;19;20018;-89
2023/10/22 14:35:14;;;;;;;0.28;0.28;;;;;;;39.78;26.05;98744.63;7390432;19;20051;-86
2023/10/22 14:37:40;;;;;;;0.22;0.10;;;;;;;39.84;25.99;98738.84;7402796;19;20347;-95
2023/10/22 14:40:08;;;;;;;0.00;0.00;;;;;;;40.14;25.83;98738.50;7390927;19;20365;-91
2023/10/22 14:42:34;;;;;;;0.00;0.00;;;;;;;40.05;25.43;98731.84;7391696;19;20010;-92
2023/10/22 14:45:00;;;;;;;0.17;0.17;;;;;;;39.81;25.87;98740.25;7390868;19;20003;-93
2023/10/22 14:47:26;;;;;;;1.20;0.20;;;;;;;39.73;25.36;98748.91;7396616;19;20014;-94
2023/10/22 14:49:52;;;;;;;0.20;0.20;;;;;;;39.44;26.08;98749.94;7397325;19;20011;-90
2023/10/22 14:52:18;;;;;;;3.72;0.88;;;;;;;39.44;25.97;98743.41;7390665;19;20014;-85
2023/10/22 14:54:45;;;;;;;0.20;0.20;;;;;;;39.45;25.92;98744.84;7389433;19;20341;-87
2023/10/22 14:57:11;;;;;;;0.10;0.00;;;;;;;39.78;25.72;98753.38;7387234;19;20019;-84
2023/10/22 14:59:37;;;;;;;0.10;0.10;;;;;;;39.80;25.92;98744.66;7389012;19;20070;-83